sensor_id;sensor_type;location;lat;lon;timestamp;pressure;altitude;pressure_sealevel;temperature;humidity
76331;BME280;65148;51.912;15.570;2023-03-14T00:11:37;99526.52;;;11.88;100.00
76331;BME280;65148;51.912;15.570;2023-03-14T00:26:38;99517.66;;;11.91;100.00
76331;BME280;65148;51.912;15.570;2023-03-14T00:41:55;99493.48;;;11.81;100.00
76331;BME280;65148;51.912;15.570;2023-03-14T00:56:56;99390.30;;;11.92;100.00
76331;BME280;65148;51.912;15.570;2023-03-14T01:11:57;99339.85;;;11.77;100.00
76331;BME280;65148;51.912;15.570;2023-03-14T01:26:58;99289.52;;;11.66;100.00
76331;BME280;65148;51.912;15.570;2023-03-14T01:42:16;99304.87;;;11.41;100.00
76331;BME280;65148;51.912;15.570;2023-03-14T01:57:21;99342.69;;;11.43;100.00
76331;BME280;65148;51.912;15.570;2023-03-14T02:12:23;99334.10;;;11.23;100.00
76331;BME280;65148;51.912;15.570;2023-03-14T02:27:25;99293.73;;;11.17;100.00
76331;BME280;65148;51.912;15.570;2023-03-14T02:42:40;99266.20;;;11.10;100.00
76331;BME280;65148;51.912;15.570;2023-03-14T02:57:41;99279.69;;;10.97;100.00
76331;BME280;65148;51.912;15.570;2023-03-14T03:12:42;99261.48;;;10.72;100.00
76331;BME280;65148;51.912;15.570;2023-03-14T03:27:45;99230.13;;;10.66;100.00
76331;BME280;65148;51.912;15.570;2023-03-14T03:43:02;99221.65;;;10.68;100.00
76331;BME280;65148;51.912;15.570;2023-03-14T03:58:04;99218.77;;;10.64;100.00
76331;BME280;65148;51.912;15.570;2023-03-14T04:13:05;99201.05;;;10.32;100.00
76331;BME280;65148;51.912;15.570;2023-03-14T04:28:06;99194.98;;;10.18;100.00
76331;BME280;65148;51.912;15.570;2023-03-14T04:43:25;99202.97;;;9.88;100.00
76331;BME280;65148;51.912;15.570;2023-03-14T04:58:26;99197.21;;;9.73;100.00
76331;BME280;65148;51.912;15.570;2023-03-14T05:13:27;99194.18;;;9.92;100.00
76331;BME280;65148;51.912;15.570;2023-03-14T05:28:28;99209.05;;;9.94;100.00
76331;BME280;65148;51.912;15.570;2023-03-14T05:43:48;99191.77;;;10.07;100.00
76331;BME280;65148;51.912;15.570;2023-03-14T05:58:50;99198.52;;;10.27;100.00
76331;BME280;65148;51.912;15.570;2023-03-14T06:13:54;99190.92;;;10.50;100.00
76331;BME280;65148;51.912;15.570;2023-03-14T06:28:55;99207.24;;;10.67;100.00
76331;BME280;65148;51.912;15.570;2023-03-14T06:44:13;99227.12;;;10.42;100.00
76331;BME280;65148;51.912;15.570;2023-03-14T06:59:14;99207.66;;;10.86;100.00
76331;BME280;65148;51.912;15.570;2023-03-14T07:14:15;99222.05;;;11.33;100.00
76331;BME280;65148;51.912;15.570;2023-03-14T07:29:16;99240.68;;;11.23;100.00
76331;BME280;65148;51.912;15.570;2023-03-14T07:44:37;99243.47;;;11.44;100.00
76331;BME280;65148;51.912;15.570;2023-03-14T07:59:38;99239.98;;;11.93;99.78
76331;BME280;65148;51.912;15.570;2023-03-14T08:14:39;99222.27;;;12.41;95.55
76331;BME280;65148;51.912;15.570;2023-03-14T08:29:40;99217.36;;;12.79;94.07
76331;BME280;65148;51.912;15.570;2023-03-14T08:44:59;99220.30;;;13.44;89.82
76331;BME280;65148;51.912;15.570;2023-03-14T09:00:00;99233.16;;;14.20;82.19
76331;BME280;65148;51.912;15.570;2023-03-14T09:15:02;99215.20;;;14.35;80.25
76331;BME280;65148;51.912;15.570;2023-03-14T09:30:03;99204.76;;;14.24;76.97
76331;BME280;65148;51.912;15.570;2023-03-14T10:00:40;99238.66;;;14.76;63.98
76331;BME280;65148;51.912;15.570;2023-03-14T10:15:42;99241.06;;;14.93;61.91
76331;BME280;65148;51.912;15.570;2023-03-14T10:31:01;99240.30;;;14.92;59.54
76331;BME280;65148;51.912;15.570;2023-03-14T10:46:11;99232.09;;;15.55;58.48
76331;BME280;65148;51.912;15.570;2023-03-14T11:32:02;99252.95;;;14.41;64.05
76331;BME280;65148;51.912;15.570;2023-03-14T11:47:41;99222.39;;;14.39;64.19
76331;BME280;65148;51.912;15.570;2023-03-14T12:17:57;99222.16;;;14.44;62.27
76331;BME280;65148;51.912;15.570;2023-03-14T12:33:21;99212.05;;;14.20;60.93
76331;BME280;65148;51.912;15.570;2023-03-14T12:48:24;99187.64;;;14.28;61.19
76331;BME280;65148;51.912;15.570;2023-03-14T13:03:36;99175.39;;;14.37;62.88
76331;BME280;65148;51.912;15.570;2023-03-14T13:34:13;99162.85;;;14.36;64.27
76331;BME280;65148;51.912;15.570;2023-03-14T13:49:22;99157.17;;;14.57;63.10
76331;BME280;65148;51.912;15.570;2023-03-14T14:21:36;99150.17;;;14.44;63.96
76331;BME280;65148;51.912;15.570;2023-03-14T14:37:02;99128.56;;;14.70;64.26
76331;BME280;65148;51.912;15.570;2023-03-14T14:52:13;99137.48;;;14.23;64.25
76331;BME280;65148;51.912;15.570;2023-03-14T15:07:15;99138.66;;;14.38;64.15
76331;BME280;65148;51.912;15.570;2023-03-14T15:22:42;99158.92;;;13.94;64.02
76331;BME280;65148;51.912;15.570;2023-03-14T15:37:46;99183.53;;;13.17;75.91
76331;BME280;65148;51.912;15.570;2023-03-14T15:52:48;99168.42;;;12.62;91.09
76331;BME280;65148;51.912;15.570;2023-03-14T16:07:50;99163.41;;;12.64;89.61
76331;BME280;65148;51.912;15.570;2023-03-14T16:23:05;99152.50;;;12.64;87.66
76331;BME280;65148;51.912;15.570;2023-03-14T16:38:06;99155.01;;;12.82;87.58
76331;BME280;65148;51.912;15.570;2023-03-14T16:53:08;99175.27;;;12.35;91.05
76331;BME280;65148;51.912;15.570;2023-03-14T17:08:09;99195.55;;;12.47;89.86
76331;BME280;65148;51.912;15.570;2023-03-14T17:23:30;99197.51;;;12.25;92.26
76331;BME280;65148;51.912;15.570;2023-03-14T17:38:35;99201.39;;;12.03;91.08
76331;BME280;65148;51.912;15.570;2023-03-14T17:53:37;99198.95;;;12.11;87.86
76331;BME280;65148;51.912;15.570;2023-03-14T18:08:39;99315.89;;;12.12;86.34
76331;BME280;65148;51.912;15.570;2023-03-14T18:23:55;99485.77;;;8.03;100.00
76331;BME280;65148;51.912;15.570;2023-03-14T18:38:56;99600.06;;;6.32;100.00
76331;BME280;65148;51.912;15.570;2023-03-14T18:53:59;99722.78;;;3.92;100.00
76331;BME280;65148;51.912;15.570;2023-03-14T19:09:01;99815.67;;;2.80;100.00
76331;BME280;65148;51.912;15.570;2023-03-14T19:24:19;99904.02;;;2.44;100.00
76331;BME280;65148;51.912;15.570;2023-03-14T19:39:22;99989.41;;;2.42;100.00
76331;BME280;65148;51.912;15.570;2023-03-14T19:54:25;100050.94;;;2.44;100.00
76331;BME280;65148;51.912;15.570;2023-03-14T20:09:26;100107.69;;;2.47;100.00
76331;BME280;65148;51.912;15.570;2023-03-14T20:24:46;100158.44;;;2.49;100.00
76331;BME280;65148;51.912;15.570;2023-03-14T20:39:48;100195.61;;;2.74;100.00
76331;BME280;65148;51.912;15.570;2023-03-14T20:54:51;100241.30;;;2.74;100.00
76331;BME280;65148;51.912;15.570;2023-03-14T21:09:52;100253.96;;;2.95;100.00
76331;BME280;65148;51.912;15.570;2023-03-14T21:25:11;100294.09;;;2.80;100.00
76331;BME280;65148;51.912;15.570;2023-03-14T21:40:13;100328.03;;;3.03;100.00
76331;BME280;65148;51.912;15.570;2023-03-14T21:55:15;100350.09;;;3.05;100.00
76331;BME280;65148;51.912;15.570;2023-03-14T22:10:19;100344.94;;;3.03;100.00
76331;BME280;65148;51.912;15.570;2023-03-14T22:25:43;100381.23;;;3.01;100.00
76331;BME280;65148;51.912;15.570;2023-03-14T22:40:46;100413.24;;;2.85;100.00
76331;BME280;65148;51.912;15.570;2023-03-14T22:55:59;100458.59;;;2.82;100.00
76331;BME280;65148;51.912;15.570;2023-03-14T23:11:17;100474.06;;;2.75;100.00
76331;BME280;65148;51.912;15.570;2023-03-14T23:26:23;100514.11;;;2.60;100.00
76331;BME280;65148;51.912;15.570;2023-03-14T23:41:25;100545.69;;;2.41;100.00
76331;BME280;65148;51.912;15.570;2023-03-14T23:56:26;100561.14;;;2.34;100.00
